Portada
METAR-TAF:

METAR-TAF

Aeropuertos :

Base Aérea de Armilla

Granada, España

latitud: 37-08N, longitud: 003-38-08W, altitud: 700 m

Observación

El informe se hizo hace 6 horas y 41 minutos, a las 13:00 UTC
Viento 9 kt del norte, variando entre noroeste y noreste
Temperatura 27°C
Humedad 21%
Presión 1013 hPa
Visibilidad 10 km o más
Escasas nubes a una altura de 6000 ft

METAR: LEGA 241300Z 36009KT 310V050 9999 FEW060 27/03 Q1013

Hora: 21:41 (19:41 UTC)

Pronóstico

El informe se hizo hace 5 horas y 41 minutos, a las 14:00 UTC
Pronóstico válido del 24 a las 15 UTC al 24 a las 24 UTC
Viento 8 kt del norte-noroeste
Visibilidad 10 km o más
Nubes dispersas a una altura de 6000 ft

TAF: LEGA 241400Z 2415/2424 33008KT 9999 SCT060

Observaciones y pronósticos meteorológicos de más de 4000 aeropuertos (mensajes METAR y TAF).

Los puntos amarillos y rojos representan las estaciones disponibles.

Ponga el ratón en el punto deseado para ver el nombre de la estación.

Haga clic para ver las observaciones y los pronósticos meteorológicos.

Para cambiar el mapa : haga clic en los botones verdes con una cruz de color negro para hacer un zoom, en el botón verde con un guión para alejar o en las flechas verdes para mapas adyacentes.


METAR-TAF: